createdAt,value
2023-05-24T00:00:53.312Z,102402.41
2023-05-24T00:03:21.844Z,102371.22
2023-05-24T00:05:50.424Z,102389.03
2023-05-24T00:08:18.786Z,102390.72
2023-05-24T00:10:48.445Z,102388.91
2023-05-24T00:13:18.168Z,102375.56
2023-05-24T00:15:46.573Z,102385.41
2023-05-24T00:18:14.910Z,102384.50
2023-05-24T00:20:43.348Z,102376.53
2023-05-24T00:23:11.975Z,102378.22
2023-05-24T00:25:40.318Z,102369.28
2023-05-24T00:28:08.581Z,102368.38
2023-05-24T00:30:38.264Z,102369.28
2023-05-24T00:33:06.692Z,102366.63
2023-05-24T00:35:35.091Z,102363.06
2023-05-24T00:38:03.710Z,102368.38
2023-05-24T00:40:32.021Z,102370.16
2023-05-24T00:43:00.338Z,102368.13
2023-05-24T00:45:28.612Z,102370.69
2023-05-24T00:47:58.417Z,102363.75
2023-05-24T00:50:27.095Z,102371.84
2023-05-24T00:52:57.471Z,102369.28
2023-05-24T00:55:26.003Z,102369.16
2023-05-24T00:57:55.040Z,102368.28
2023-05-24T01:00:23.974Z,102372.59
2023-05-24T01:02:52.828Z,102368.06
2023-05-24T01:05:23.636Z,102367.06
2023-05-24T01:08:00.786Z,102362.59
2023-05-24T01:10:37.639Z,102363.22
2023-05-24T01:13:19.057Z,102361.22
2023-05-24T01:15:54.472Z,102360.28
2023-05-24T01:18:30.369Z,102369.19
2023-05-24T01:21:17.554Z,102369.19
2023-05-24T01:23:53.784Z,102375.47
2023-05-24T01:26:39.625Z,102371.09
2023-05-24T01:29:10.164Z,102369.34
2023-05-24T01:31:39.634Z,102372.97
2023-05-24T01:34:08.366Z,102368.53
2023-05-24T01:36:36.639Z,102363.34
2023-05-24T01:39:06.167Z,102364.25
2023-05-24T01:41:42.372Z,102364.25
2023-05-24T01:44:25.153Z,102373.00
2023-05-24T01:47:03.961Z,102369.41
2023-05-24T01:49:39.532Z,102360.53
2023-05-24T01:52:13.997Z,102346.44
2023-05-24T01:54:50.330Z,102342.03
2023-05-24T01:57:21.304Z,102341.94
2023-05-24T01:59:52.258Z,102356.06
2023-05-24T02:02:20.954Z,102349.06
2023-05-24T02:04:49.373Z,102353.56
2023-05-24T02:07:19.301Z,102349.00
2023-05-24T02:09:47.658Z,102354.06
2023-05-24T02:12:15.979Z,102355.81
2023-05-24T02:14:44.270Z,102346.78
2023-05-24T02:17:14.825Z,102353.91
2023-05-24T02:19:43.175Z,102355.56
2023-05-24T02:22:12.663Z,102349.34
2023-05-24T02:24:41.379Z,102349.34
2023-05-24T02:27:09.660Z,102346.66
2023-05-24T02:29:38.548Z,102352.91
2023-05-24T02:32:07.710Z,102344.00
2023-05-24T02:34:37.486Z,102350.91
2023-05-24T02:37:06.333Z,102353.66
2023-05-24T02:39:35.171Z,102350.13
2023-05-24T02:42:05.835Z,102342.81
2023-05-24T02:44:33.982Z,102350.91
2023-05-24T02:47:02.321Z,102348.03
2023-05-24T02:49:30.591Z,102352.41
2023-05-24T02:52:00.285Z,102353.91
2023-05-24T02:54:28.604Z,102355.00
2023-05-24T02:56:58.004Z,102348.63
2023-05-24T02:59:26.708Z,102346.09
2023-05-24T03:01:55.037Z,102342.59
2023-05-24T03:04:26.162Z,102343.66
2023-05-24T03:06:55.123Z,102334.88
2023-05-24T03:09:24.856Z,102342.00
2023-05-24T03:11:54.523Z,102345.59
2023-05-24T03:14:24.938Z,102341.09
2023-05-24T03:16:53.473Z,102328.78
2023-05-24T03:19:21.751Z,102327.84
2023-05-24T03:21:50.423Z,102324.38
2023-05-24T03:24:19.364Z,102324.44
2023-05-24T03:26:49.319Z,102321.75
2023-05-24T03:29:19.037Z,102331.41
2023-05-24T03:31:47.674Z,102331.31
2023-05-24T03:34:16.178Z,102334.19
2023-05-24T03:36:45.255Z,102332.50
2023-05-24T03:39:13.532Z,102328.13
2023-05-24T03:41:57.471Z,102327.28
2023-05-24T03:44:25.831Z,102327.31
2023-05-24T03:46:54.187Z,102314.09
2023-05-24T03:49:22.491Z,102329.13
2023-05-24T03:51:50.953Z,102331.03
2023-05-24T03:54:19.877Z,102332.03
2023-05-24T03:56:48.178Z,102330.28
2023-05-24T03:59:17.883Z,102333.72
2023-05-24T04:01:46.214Z,102323.13
2023-05-24T04:04:16.443Z,102332.94
2023-05-24T04:06:44.826Z,102334.78
2023-05-24T04:09:14.932Z,102333.94
2023-05-24T04:11:43.247Z,102342.78
2023-05-24T04:14:13.340Z,102345.66
2023-05-24T04:16:45.097Z,102342.97
2023-05-24T04:19:13.687Z,102347.47
2023-05-24T04:21:42.081Z,102344.91
2023-05-24T04:24:10.446Z,102343.16
2023-05-24T04:26:38.791Z,102345.88
2023-05-24T04:29:07.810Z,102348.47
2023-05-24T04:31:37.084Z,102351.34
2023-05-24T04:34:09.965Z,102351.47
2023-05-24T04:36:38.310Z,102349.84
2023-05-24T04:39:07.072Z,102351.63
2023-05-24T04:41:37.236Z,102353.44
2023-05-24T04:44:05.801Z,102355.22
2023-05-24T04:46:36.546Z,102353.50
2023-05-24T04:49:05.681Z,102356.34
2023-05-24T04:51:38.366Z,102361.63
2023-05-24T04:54:09.243Z,102361.63
2023-05-24T04:56:38.648Z,102348.41
2023-05-24T04:59:07.296Z,102353.78
2023-05-24T05:01:36.084Z,102351.16
2023-05-24T05:04:05.532Z,102347.66
2023-05-24T05:06:38.699Z,102340.66
2023-05-24T05:09:09.503Z,102344.22
2023-05-24T05:11:38.089Z,102346.91
2023-05-24T05:14:06.487Z,102339.84
2023-05-24T05:16:34.862Z,102340.75
2023-05-24T05:19:04.607Z,102345.19
2023-05-24T05:21:35.022Z,102343.41
2023-05-24T05:24:04.154Z,102341.66
2023-05-24T05:26:32.593Z,102353.25
2023-05-24T05:29:00.887Z,102346.13
2023-05-24T05:31:29.143Z,102351.50
2023-05-24T05:33:57.512Z,102353.22
2023-05-24T05:36:25.842Z,102350.59
2023-05-24T05:38:55.657Z,102350.59
2023-05-24T05:41:24.005Z,102352.34
2023-05-24T05:43:52.290Z,102360.38
2023-05-24T05:46:22.131Z,102367.47
2023-05-24T05:48:50.629Z,102367.47
2023-05-24T05:51:18.912Z,102369.16
2023-05-24T05:53:47.211Z,102355.88
2023-05-24T05:56:17.930Z,102368.34
2023-05-24T05:58:46.069Z,102367.50
2023-05-24T06:01:14.385Z,102374.63
2023-05-24T06:03:42.775Z,102368.41
2023-05-24T06:06:11.183Z,102368.41
2023-05-24T06:08:40.837Z,102366.63
2023-05-24T06:11:09.227Z,102371.09
2023-05-24T06:13:38.848Z,102369.31
2023-05-24T06:16:08.631Z,102376.44
2023-05-24T06:18:37.667Z,102373.75
2023-05-24T06:21:06.719Z,102378.19
2023-05-24T06:23:35.056Z,102374.63
2023-05-24T06:26:03.461Z,102375.53
2023-05-24T06:28:31.779Z,102381.75
2023-05-24T06:31:01.480Z,102375.53
2023-05-24T06:33:29.953Z,102376.44
2023-05-24T06:35:58.254Z,102409.34
2023-05-24T06:38:27.967Z,102376.44
2023-05-24T06:40:56.307Z,102375.53
2023-05-24T06:43:24.604Z,102377.31
2023-05-24T06:45:52.963Z,102372.84
2023-05-24T06:48:22.816Z,102379.06
2023-05-24T06:50:51.214Z,102374.59
2023-05-24T06:53:20.669Z,102376.31
2023-05-24T06:55:49.032Z,102381.75
2023-05-24T06:58:17.412Z,102382.63
2023-05-24T07:00:46.304Z,102379.91
2023-05-24T07:03:14.947Z,102382.59
2023-05-24T07:05:44.585Z,102381.75
2023-05-24T07:08:12.943Z,102388.84
2023-05-24T07:10:41.561Z,102381.72
2023-05-24T07:13:13.433Z,102382.59
2023-05-24T07:15:42.806Z,102387.94
2023-05-24T07:18:11.489Z,102384.34
2023-05-24T07:20:39.991Z,102375.41
2023-05-24T07:23:09.961Z,102386.03
2023-05-24T07:25:38.476Z,102392.25
2023-05-24T07:28:07.012Z,102397.59
2023-05-24T07:30:35.654Z,102386.78
2023-05-24T07:33:04.004Z,102391.16
2023-05-24T07:35:32.866Z,102402.78
2023-05-24T07:38:01.289Z,102403.50
2023-05-24T07:40:31.147Z,102402.44
2023-05-24T07:42:59.521Z,102398.75
2023-05-24T07:45:27.837Z,102404.97
2023-05-24T07:47:57.050Z,102395.00
2023-05-24T07:50:26.494Z,102401.94
2023-05-24T07:52:55.201Z,102401.78
2023-05-24T07:55:23.524Z,102402.66
2023-05-24T07:57:53.180Z,102396.41
2023-05-24T08:00:23.129Z,102400.19
2023-05-24T08:02:52.322Z,102403.59
2023-05-24T08:05:20.801Z,102416.94
2023-05-24T08:07:49.112Z,102407.88
2023-05-24T08:10:18.630Z,102415.94
2023-05-24T08:12:47.078Z,102416.75
2023-05-24T08:15:17.032Z,102411.38
2023-05-24T08:17:45.398Z,102405.78
2023-05-24T08:20:15.650Z,102411.25
2023-05-24T08:22:44.982Z,102398.00
2023-05-24T08:25:13.426Z,102402.13
2023-05-24T08:27:41.764Z,102410.81
2023-05-24T08:30:11.103Z,102401.00
2023-05-24T08:32:41.013Z,102396.91
2023-05-24T08:35:19.524Z,102394.59
2023-05-24T08:37:49.976Z,102401.28
2023-05-24T08:40:19.063Z,102396.53
2023-05-24T08:42:47.843Z,102378.69
2023-05-24T08:45:17.008Z,102378.28
2023-05-24T08:47:48.028Z,102383.38
2023-05-24T08:50:17.049Z,102409.47
2023-05-24T08:52:47.197Z,102403.63
2023-05-24T08:55:16.786Z,102409.44
2023-05-24T08:57:46.661Z,102404.66
2023-05-24T09:00:16.702Z,102393.97
2023-05-24T09:02:47.647Z,102406.25
2023-05-24T09:05:17.541Z,102409.25
2023-05-24T09:07:46.941Z,102385.41
2023-05-24T09:10:15.706Z,102385.84
2023-05-24T09:12:49.566Z,102399.81
2023-05-24T09:15:17.859Z,102395.78
2023-05-24T09:17:47.803Z,102396.09
2023-05-24T09:20:16.622Z,102382.22
2023-05-24T09:22:46.269Z,102400.41
2023-05-24T09:25:16.114Z,102401.88
2023-05-24T09:27:48.912Z,102399.97
2023-05-24T09:30:17.526Z,102397.28
2023-05-24T09:32:58.716Z,102399.00
2023-05-24T09:35:28.156Z,102408.44
2023-05-24T09:37:59.851Z,102397.53
2023-05-24T09:40:29.418Z,102396.28
2023-05-24T09:43:09.163Z,102393.41
2023-05-24T09:45:44.261Z,102399.09
2023-05-24T09:48:15.319Z,102396.09
2023-05-24T09:50:45.785Z,102396.22
2023-05-24T09:53:14.329Z,102387.66
2023-05-24T09:55:42.591Z,102395.94
2023-05-24T09:58:12.877Z,102397.44
2023-05-24T10:00:43.783Z,102371.38
2023-05-24T10:03:15.231Z,102388.72
2023-05-24T10:05:46.028Z,102357.34
2023-05-24T10:08:15.354Z,102376.63
2023-05-24T10:10:44.839Z,102361.53
2023-05-24T10:13:15.870Z,102376.31
2023-05-24T10:15:45.218Z,102372.69
2023-05-24T10:18:15.123Z,102378.44
2023-05-24T10:20:44.367Z,102386.78
2023-05-24T10:23:18.786Z,102373.53
2023-05-24T10:25:54.166Z,102374.34
2023-05-24T10:28:24.951Z,102374.84
2023-05-24T10:31:04.517Z,102376.38
2023-05-24T10:33:38.410Z,102355.97
2023-05-24T10:36:09.950Z,102382.88
2023-05-24T10:38:40.882Z,102372.38
2023-05-24T10:41:09.954Z,102370.81
2023-05-24T10:43:38.970Z,102373.25
2023-05-24T10:46:11.019Z,102331.81
2023-05-24T10:48:41.719Z,102375.56
2023-05-24T10:51:35.512Z,102366.88
2023-05-24T10:54:18.704Z,102374.28
2023-05-24T10:56:50.454Z,102376.41
2023-05-24T10:59:31.638Z,102380.03
2023-05-24T11:02:01.088Z,102375.91
2023-05-24T11:04:35.291Z,102383.59
2023-05-24T11:07:05.667Z,102382.59
2023-05-24T11:09:34.994Z,102382.09
2023-05-24T11:12:07.416Z,102373.22
2023-05-24T11:14:39.776Z,102382.03
2023-05-24T11:17:09.115Z,102374.06
2023-05-24T11:19:47.147Z,102381.25
2023-05-24T11:22:16.336Z,102385.34
2023-05-24T11:24:45.945Z,102374.94
2023-05-24T11:27:15.746Z,102379.63
2023-05-24T11:29:45.536Z,102376.19
2023-05-24T11:32:18.165Z,102375.75
2023-05-24T11:34:49.618Z,102379.97
2023-05-24T11:37:19.154Z,102374.22
2023-05-24T11:39:53.478Z,102376.41
2023-05-24T11:42:24.245Z,102370.03
2023-05-24T11:44:53.132Z,102366.41
2023-05-24T11:47:23.564Z,102373.78
2023-05-24T11:49:53.770Z,102365.03
2023-05-24T11:52:22.907Z,102367.34
2023-05-24T11:54:51.799Z,102365.03
2023-05-24T11:57:27.633Z,102366.59
2023-05-24T11:59:58.102Z,102371.78
2023-05-24T12:02:26.822Z,102361.47
2023-05-24T12:04:56.872Z,102371.81
2023-05-24T12:07:25.687Z,102367.19
2023-05-24T12:09:54.290Z,102364.28
2023-05-24T12:12:30.470Z,102361.97
2023-05-24T12:14:59.428Z,102359.78
2023-05-24T12:17:28.240Z,102350.81
2023-05-24T12:19:58.508Z,102353.03
2023-05-24T12:22:31.986Z,102358.75
2023-05-24T12:25:00.724Z,102356.47
2023-05-24T12:27:31.246Z,102357.81
2023-05-24T12:30:10.078Z,102357.75
2023-05-24T12:32:38.842Z,102352.72
2023-05-24T12:35:12.889Z,102358.69
2023-05-24T12:37:41.846Z,102345.38
2023-05-24T12:40:20.533Z,102355.38
2023-05-24T12:42:52.544Z,102358.53
2023-05-24T12:45:23.235Z,102353.09
2023-05-24T12:47:53.155Z,102363.56
2023-05-24T12:50:25.197Z,102359.53
2023-05-24T12:52:56.031Z,102364.75
2023-05-24T12:55:26.626Z,102366.28
2023-05-24T12:57:57.650Z,102351.94
2023-05-24T13:00:29.116Z,102348.72
2023-05-24T13:03:00.078Z,102358.34
2023-05-24T13:05:30.870Z,102362.28
2023-05-24T13:07:59.768Z,102347.50
2023-05-24T13:10:28.995Z,102345.59
2023-05-24T13:12:57.806Z,102353.69
2023-05-24T13:15:27.453Z,102367.94
2023-05-24T13:17:56.340Z,102357.06
2023-05-24T13:20:25.359Z,102348.09
2023-05-24T13:22:55.636Z,102359.50
2023-05-24T13:25:24.505Z,102366.19
2023-05-24T13:27:53.271Z,102350.81
2023-05-24T13:30:27.658Z,102356.84
2023-05-24T13:32:58.723Z,102364.81
2023-05-24T13:35:28.549Z,102356.50
2023-05-24T13:37:59.103Z,102361.00
2023-05-24T13:40:27.805Z,102351.63
2023-05-24T13:42:59.906Z,102352.97
2023-05-24T13:45:30.199Z,102370.22
2023-05-24T13:48:03.937Z,102346.00
2023-05-24T13:50:32.857Z,102349.88
2023-05-24T13:53:03.638Z,102355.00
2023-05-24T13:55:34.087Z,102354.88
2023-05-24T13:58:05.075Z,102355.53
2023-05-24T14:00:36.083Z,102344.97
2023-05-24T14:03:06.184Z,102357.06
2023-05-24T14:05:34.876Z,102352.34
2023-05-24T14:08:07.000Z,102354.94
2023-05-24T14:10:37.277Z,102357.69
2023-05-24T14:15:39.176Z,102355.94
2023-05-24T14:18:08.743Z,102356.78
2023-05-24T14:20:38.763Z,102359.38
2023-05-24T14:23:10.164Z,102345.69
2023-05-24T14:25:42.277Z,102364.53
2023-05-24T14:28:11.347Z,102348.22
2023-05-24T14:30:40.230Z,102359.25
2023-05-24T14:33:11.540Z,102363.84
2023-05-24T14:35:40.722Z,102356.84
2023-05-24T14:38:13.110Z,102362.56
2023-05-24T14:40:42.776Z,102355.84
2023-05-24T14:43:12.326Z,102356.91
2023-05-24T14:45:42.943Z,102350.19
2023-05-24T14:48:13.163Z,102349.63
2023-05-24T14:50:43.313Z,102328.53
2023-05-24T14:53:13.496Z,102352.56
2023-05-24T14:55:44.432Z,102357.63
2023-05-24T14:58:14.160Z,102346.09
2023-05-24T15:00:44.608Z,102348.03
2023-05-24T15:03:15.143Z,102364.03
2023-05-24T15:05:44.458Z,102357.09
2023-05-24T15:08:14.372Z,102357.94
2023-05-24T15:10:44.486Z,102350.25
2023-05-24T15:13:16.249Z,102358.13
2023-05-24T15:15:45.038Z,102369.72
2023-05-24T15:18:13.658Z,102366.06
2023-05-24T15:20:42.283Z,102366.41
2023-05-24T15:23:11.474Z,102361.06
2023-05-24T15:25:43.059Z,102363.09
2023-05-24T15:28:12.919Z,102367.75
2023-05-24T15:30:44.258Z,102369.47
2023-05-24T15:33:13.035Z,102367.66
2023-05-24T15:35:42.375Z,102372.53
2023-05-24T15:38:14.435Z,102369.50
2023-05-24T15:40:45.350Z,102376.06
2023-05-24T15:43:15.667Z,102368.63
2023-05-24T15:45:46.057Z,102364.28
2023-05-24T15:48:14.950Z,102369.91
2023-05-24T15:51:04.230Z,102369.13
2023-05-24T15:53:33.028Z,102362.94
2023-05-24T15:56:03.067Z,102374.59
2023-05-24T15:58:31.875Z,102364.56
2023-05-24T16:01:00.579Z,102372.81
2023-05-24T16:03:29.176Z,102366.38
2023-05-24T16:05:58.107Z,102370.78
2023-05-24T16:08:27.989Z,102368.78
2023-05-24T16:10:57.181Z,102367.66
2023-05-24T16:13:28.342Z,102372.31
2023-05-24T16:15:57.263Z,102364.19
2023-05-24T16:18:29.005Z,102366.09
2023-05-24T16:20:57.668Z,102365.22
2023-05-24T16:23:27.032Z,102362.69
2023-05-24T16:25:56.953Z,102353.75
2023-05-24T16:28:27.141Z,102356.25
2023-05-24T16:30:57.433Z,102336.69
2023-05-24T16:33:27.712Z,102355.97
2023-05-24T16:35:56.907Z,102342.50
2023-05-24T16:38:26.866Z,102354.03
2023-05-24T16:40:57.294Z,102356.59
2023-05-24T16:43:27.487Z,102347.88
2023-05-24T16:45:56.240Z,102342.34
2023-05-24T16:48:28.742Z,102353.84
2023-05-24T16:50:58.104Z,102344.09
2023-05-24T16:53:28.596Z,102353.78
2023-05-24T16:55:58.015Z,102352.03
2023-05-24T16:58:29.542Z,102309.34
2023-05-24T17:00:59.129Z,102347.06
2023-05-24T17:03:29.576Z,102350.56
2023-05-24T17:06:04.039Z,102346.09
2023-05-24T17:08:35.023Z,102346.09
2023-05-24T17:11:05.362Z,102363.13
2023-05-24T17:13:36.480Z,102349.56
2023-05-24T17:16:05.912Z,102353.88
2023-05-24T17:18:34.884Z,102346.91
2023-05-24T17:21:05.828Z,102343.28
2023-05-24T17:23:36.517Z,102349.88
2023-05-24T17:26:08.136Z,102325.88
2023-05-24T17:28:38.131Z,102356.88
2023-05-24T17:31:09.484Z,102354.41
2023-05-24T17:33:40.455Z,102348.00
2023-05-24T17:36:09.675Z,102356.94
2023-05-24T17:38:41.932Z,102355.97
2023-05-24T17:41:10.852Z,102355.22
2023-05-24T17:43:41.956Z,102349.72
2023-05-24T17:46:11.142Z,102349.72
2023-05-24T17:48:41.180Z,102354.22
2023-05-24T17:51:11.395Z,102348.88
2023-05-24T17:53:43.059Z,102362.25
2023-05-24T17:56:11.816Z,102365.06
2023-05-24T17:58:41.865Z,102362.50
2023-05-24T18:01:15.810Z,102261.50
2023-05-24T18:03:44.801Z,102361.53
2023-05-24T18:06:21.099Z,102360.59
2023-05-24T18:08:50.216Z,102359.84
2023-05-24T18:11:19.116Z,102360.72
2023-05-24T18:13:49.370Z,102354.47
2023-05-24T18:16:18.209Z,102357.44
2023-05-24T18:18:47.036Z,102363.66
2023-05-24T18:21:15.834Z,102366.53
2023-05-24T18:23:45.011Z,102366.47
2023-05-24T18:26:18.093Z,102357.69
2023-05-24T18:28:49.924Z,102361.25
2023-05-24T18:31:22.061Z,102362.94
2023-05-24T18:33:51.465Z,102360.25
2023-05-24T18:36:21.946Z,102359.44
2023-05-24T18:38:57.983Z,102365.59
2023-05-24T18:41:28.371Z,102358.59
2023-05-24T18:43:59.593Z,102366.72
2023-05-24T18:46:29.576Z,102367.69
2023-05-24T18:49:03.177Z,102369.50
2023-05-24T18:51:32.269Z,102374.91
2023-05-24T18:54:00.773Z,102373.16
2023-05-24T18:56:31.178Z,102377.69
2023-05-24T18:59:06.187Z,102382.19
2023-05-24T19:01:38.645Z,102382.19
2023-05-24T19:04:13.049Z,102383.03
2023-05-24T19:06:43.068Z,102382.16
2023-05-24T19:09:11.634Z,102379.59
2023-05-24T19:11:46.276Z,102382.50
2023-05-24T19:14:20.318Z,102380.66
2023-05-24T19:16:48.964Z,102379.13
2023-05-24T19:19:18.059Z,102384.47
2023-05-24T19:21:46.575Z,102382.72
2023-05-24T19:24:15.192Z,102383.63
2023-05-24T19:26:43.869Z,102391.63
2023-05-24T19:29:12.835Z,102387.41
2023-05-24T19:31:46.786Z,102401.63
2023-05-24T19:34:17.358Z,102393.59
2023-05-24T19:36:47.327Z,102374.19
2023-05-24T19:39:21.230Z,102398.09
2023-05-24T19:41:50.217Z,102403.63
2023-05-24T19:44:20.005Z,102403.75
2023-05-24T19:46:50.131Z,102408.22
2023-05-24T19:49:25.166Z,102406.59
2023-05-24T19:51:54.515Z,102410.22
2023-05-24T19:54:31.452Z,102410.31
2023-05-24T19:57:03.144Z,102408.59
2023-05-24T19:59:33.757Z,102409.50
2023-05-24T20:02:03.505Z,102410.50
2023-05-24T20:04:32.571Z,102413.13
2023-05-24T20:07:02.580Z,102413.19
2023-05-24T20:09:31.311Z,102411.53
2023-05-24T20:12:01.743Z,102420.50
2023-05-24T20:14:35.154Z,102425.91
2023-05-24T20:17:05.648Z,102419.72
2023-05-24T20:19:42.634Z,102426.06
2023-05-24T20:22:12.692Z,102426.03
2023-05-24T20:24:41.544Z,102432.34
2023-05-24T20:27:10.257Z,102436.81
2023-05-24T20:29:38.718Z,102437.75
2023-05-24T20:32:09.253Z,102435.03
2023-05-24T20:34:38.106Z,102441.25
2023-05-24T20:37:07.340Z,102424.47
2023-05-24T20:39:37.890Z,102441.38
2023-05-24T20:42:08.612Z,102443.19
2023-05-24T20:44:39.643Z,102452.09
2023-05-24T20:47:12.748Z,102444.09
2023-05-24T20:49:41.370Z,102443.25
2023-05-24T20:52:11.471Z,102446.84
2023-05-24T20:54:40.129Z,102445.91
2023-05-24T20:57:11.758Z,102443.25
2023-05-24T20:59:40.735Z,102449.53
2023-05-24T21:02:10.942Z,102445.97
2023-05-24T21:04:39.424Z,102434.44
2023-05-24T21:07:09.061Z,102446.94
2023-05-24T21:09:38.296Z,102445.16
2023-05-24T21:12:07.708Z,102448.69
2023-05-24T21:14:36.426Z,102455.84
2023-05-24T21:17:05.686Z,102454.97
2023-05-24T21:19:35.488Z,102459.44
2023-05-24T21:22:06.111Z,102463.00
2023-05-24T21:24:34.551Z,102471.09
2023-05-24T21:27:03.126Z,102469.34
2023-05-24T21:29:32.194Z,102472.00
2023-05-24T21:32:03.576Z,102475.66
2023-05-24T21:34:32.241Z,102473.78
2023-05-24T21:37:02.497Z,102476.50
2023-05-24T21:39:31.502Z,102474.72
2023-05-24T21:42:00.169Z,102470.28
2023-05-24T21:44:28.634Z,102480.09
2023-05-24T21:46:57.697Z,102481.06
2023-05-24T21:49:27.682Z,102485.50
2023-05-24T21:51:56.472Z,102489.03
2023-05-24T21:54:26.867Z,102487.25
2023-05-24T21:56:55.664Z,102489.91
2023-05-24T21:59:24.447Z,102497.91
2023-05-24T22:01:53.209Z,102503.31
2023-05-24T22:04:22.426Z,102502.47
2023-05-24T22:06:51.145Z,102503.34
2023-05-24T22:09:19.882Z,102392.22
2023-05-24T22:11:49.805Z,102498.88
2023-05-24T22:14:18.398Z,102506.00
2023-05-24T22:16:47.173Z,102500.69
2023-05-24T22:19:20.311Z,102513.16
2023-05-24T22:21:56.354Z,102512.25
2023-05-24T22:24:25.077Z,102511.38
2023-05-24T22:26:56.019Z,102508.69
2023-05-24T22:29:24.509Z,102509.53
2023-05-24T22:31:52.952Z,102498.03
2023-05-24T22:34:27.948Z,102514.13
2023-05-24T22:36:57.495Z,102504.31
2023-05-24T22:39:26.310Z,102515.84
2023-05-24T22:41:56.054Z,102525.66
2023-05-24T22:44:24.336Z,102521.22
2023-05-24T22:46:53.536Z,102524.78
2023-05-24T22:49:22.520Z,102516.75
2023-05-24T22:51:53.211Z,102513.25
2023-05-24T22:54:21.586Z,102508.75
2023-05-24T22:56:49.894Z,102512.34
2023-05-24T22:59:19.631Z,102513.22
2023-05-24T23:01:48.031Z,102512.34
2023-05-24T23:04:21.199Z,102515.91
2023-05-24T23:06:52.374Z,102506.13
2023-05-24T23:09:34.716Z,102515.00
2023-05-24T23:12:08.395Z,102480.38
2023-05-24T23:14:40.006Z,102513.25
2023-05-24T23:17:13.371Z,102507.97
2023-05-24T23:19:43.228Z,102500.78
2023-05-24T23:22:12.399Z,102514.19
2023-05-24T23:24:42.194Z,102510.63
2023-05-24T23:27:10.852Z,102514.19
2023-05-24T23:29:40.745Z,102508.84
2023-05-24T23:32:10.296Z,102505.28
2023-05-24T23:34:38.795Z,102501.75
2023-05-24T23:37:08.706Z,102500.84
2023-05-24T23:39:37.098Z,102503.50
2023-05-24T23:42:06.715Z,102501.72
2023-05-24T23:44:35.070Z,102495.50
2023-05-24T23:47:05.033Z,102498.16
2023-05-24T23:49:33.532Z,102492.81
2023-05-24T23:52:01.824Z,102499.97
2023-05-24T23:54:30.298Z,102494.63
2023-05-24T23:56:58.637Z,102491.97
2023-05-24T23:59:26.935Z,102491.09
